createdAt,value
2023-03-26T00:00:27.307Z,3
2023-03-26T00:01:13.186Z,3
2023-03-26T00:01:59.211Z,3
2023-03-26T00:02:45.239Z,3
2023-03-26T00:03:31.214Z,3
2023-03-26T00:04:17.198Z,3
2023-03-26T00:05:03.192Z,3
2023-03-26T00:05:49.276Z,3
2023-03-26T00:06:35.187Z,3
2023-03-26T00:07:21.192Z,3
2023-03-26T00:08:07.224Z,3
2023-03-26T00:08:53.262Z,3
2023-03-26T00:09:39.176Z,3
2023-03-26T00:10:25.212Z,3
2023-03-26T00:11:11.234Z,3
2023-03-26T00:11:57.221Z,3
2023-03-26T00:12:43.237Z,3
2023-03-26T00:13:29.217Z,3
2023-03-26T00:14:15.321Z,3
2023-03-26T00:15:01.342Z,3
2023-03-26T00:15:47.245Z,3
2023-03-26T00:16:33.278Z,3
2023-03-26T00:17:19.241Z,3
2023-03-26T00:18:05.282Z,3
2023-03-26T00:18:51.271Z,3
2023-03-26T00:19:37.285Z,3
2023-03-26T00:20:23.231Z,3
2023-03-26T00:21:09.262Z,3
2023-03-26T00:21:55.264Z,3
2023-03-26T00:22:41.268Z,3
2023-03-26T00:23:27.296Z,3
2023-03-26T00:24:13.293Z,3
2023-03-26T00:24:59.250Z,3
2023-03-26T00:25:45.296Z,3
2023-03-26T00:26:31.305Z,3
2023-03-26T00:27:17.475Z,3
2023-03-26T00:28:03.256Z,3
2023-03-26T00:28:49.293Z,3
2023-03-26T00:29:35.302Z,3
2023-03-26T00:30:21.414Z,3
2023-03-26T00:31:07.330Z,3
2023-03-26T00:31:53.306Z,3
2023-03-26T00:32:39.310Z,3
2023-03-26T00:33:25.352Z,3
2023-03-26T00:34:11.349Z,3
2023-03-26T00:34:57.385Z,3
2023-03-26T00:35:43.384Z,3
2023-03-26T00:36:29.342Z,3
2023-03-26T00:37:15.424Z,3
2023-03-26T00:38:01.301Z,3
2023-03-26T00:38:47.341Z,3
2023-03-26T00:39:33.331Z,3
2023-03-26T00:40:19.361Z,3
2023-03-26T00:41:05.385Z,3
2023-03-26T00:41:51.361Z,3
2023-03-26T00:42:37.391Z,3
2023-03-26T00:43:23.404Z,3
2023-03-26T00:44:09.369Z,3
2023-03-26T00:44:55.346Z,3
2023-03-26T00:45:41.461Z,3
2023-03-26T00:46:27.433Z,3
2023-03-26T00:47:13.409Z,3
2023-03-26T00:47:59.394Z,3
2023-03-26T00:48:46.036Z,3
2023-03-26T00:49:31.393Z,3
2023-03-26T00:50:17.421Z,3
2023-03-26T00:51:03.413Z,3
2023-03-26T00:51:49.428Z,3
2023-03-26T00:52:35.392Z,3
2023-03-26T00:53:21.447Z,3
2023-03-26T00:54:07.400Z,3
2023-03-26T00:54:53.438Z,3
2023-03-26T00:55:39.387Z,3
2023-03-26T00:56:25.424Z,3
2023-03-26T00:57:11.411Z,3
2023-03-26T00:57:57.402Z,3
2023-03-26T00:58:43.460Z,3
2023-03-26T00:59:29.473Z,3
2023-03-26T01:00:15.610Z,3
2023-03-26T01:01:01.527Z,3
2023-03-26T01:01:47.503Z,3
2023-03-26T01:02:33.505Z,3
2023-03-26T01:03:26.980Z,3
2023-03-26T01:04:09.102Z,3
2023-03-26T01:04:51.528Z,3
2023-03-26T01:05:37.430Z,3
2023-03-26T01:06:23.481Z,3
2023-03-26T01:07:09.419Z,3
2023-03-26T01:07:55.498Z,3
2023-03-26T01:08:41.488Z,3
2023-03-26T01:09:27.472Z,3
2023-03-26T01:10:13.441Z,3
2023-03-26T01:10:59.467Z,3
2023-03-26T01:11:45.489Z,3
2023-03-26T01:12:31.466Z,3
2023-03-26T01:13:17.510Z,3
2023-03-26T01:14:03.527Z,3
2023-03-26T01:14:51.028Z,3
2023-03-26T01:15:35.607Z,3
2023-03-26T01:16:21.569Z,3
2023-03-26T01:17:07.487Z,3
2023-03-26T01:17:53.543Z,3
2023-03-26T01:18:39.498Z,3
2023-03-26T01:19:25.526Z,3
2023-03-26T01:20:11.532Z,3
2023-03-26T01:20:57.521Z,3
2023-03-26T01:21:43.525Z,3
2023-03-26T01:22:29.502Z,3
2023-03-26T01:23:15.669Z,3
2023-03-26T01:24:01.500Z,3
2023-03-26T01:24:47.584Z,3
2023-03-26T01:25:33.530Z,3
2023-03-26T01:26:19.538Z,3
2023-03-26T01:27:05.540Z,3
2023-03-26T01:27:51.564Z,3
2023-03-26T01:28:37.527Z,3
2023-03-26T01:29:23.581Z,3
2023-03-26T01:30:09.659Z,3
2023-03-26T01:30:55.556Z,3
2023-03-26T01:31:41.608Z,3
2023-03-26T01:32:27.710Z,3
2023-03-26T01:33:13.801Z,3
2023-03-26T01:33:59.586Z,3
2023-03-26T01:34:45.602Z,3
2023-03-26T01:35:31.623Z,3
2023-03-26T01:36:17.587Z,3
2023-03-26T01:37:03.596Z,3
2023-03-26T01:37:49.583Z,3
2023-03-26T01:38:35.630Z,3
2023-03-26T01:39:21.627Z,3
2023-03-26T01:40:07.629Z,3
2023-03-26T01:40:53.611Z,3
2023-03-26T01:41:39.650Z,3
2023-03-26T01:42:25.614Z,3
2023-03-26T01:43:11.594Z,3
2023-03-26T01:43:57.628Z,3
2023-03-26T01:44:43.623Z,3
2023-03-26T01:45:29.713Z,3
2023-03-26T01:46:15.799Z,3
2023-03-26T01:47:01.608Z,3
2023-03-26T01:47:47.661Z,3
2023-03-26T01:48:33.642Z,3
2023-03-26T01:49:19.666Z,3
2023-03-26T01:50:05.641Z,3
2023-03-26T01:50:51.641Z,3
2023-03-26T01:51:37.624Z,3
2023-03-26T01:52:23.649Z,3
2023-03-26T01:53:09.684Z,3
2023-03-26T01:53:55.651Z,3
2023-03-26T01:54:41.702Z,3
2023-03-26T01:55:27.648Z,3
2023-03-26T01:56:13.716Z,3
2023-03-26T01:56:59.729Z,3
2023-03-26T01:57:45.689Z,3
2023-03-26T01:58:31.708Z,3
2023-03-26T01:59:17.694Z,3
2023-03-26T02:00:03.820Z,3
2023-03-26T02:00:49.708Z,3
2023-03-26T02:01:35.765Z,3
2023-03-26T02:02:21.905Z,3
2023-03-26T02:03:07.800Z,3
2023-03-26T02:03:53.684Z,3
2023-03-26T02:04:39.739Z,3
2023-03-26T02:05:25.720Z,3
2023-03-26T02:06:11.702Z,3
2023-03-26T02:06:57.762Z,3
2023-03-26T02:07:43.730Z,3
2023-03-26T02:08:29.732Z,3
2023-03-26T02:09:15.863Z,3
2023-03-26T02:10:01.771Z,3
2023-03-26T02:10:47.712Z,3
2023-03-26T02:11:35.866Z,3
2023-03-26T02:12:19.772Z,3
2023-03-26T02:13:05.743Z,3
2023-03-26T02:13:51.749Z,3
2023-03-26T02:14:37.781Z,3
2023-03-26T02:15:23.840Z,3
2023-03-26T02:16:09.804Z,3
2023-03-26T02:16:55.773Z,3
2023-03-26T02:17:41.833Z,3
2023-03-26T02:18:27.767Z,3
2023-03-26T02:19:13.770Z,3
2023-03-26T02:19:59.816Z,3
2023-03-26T02:20:45.811Z,3
2023-03-26T02:21:31.809Z,3
2023-03-26T02:22:17.820Z,3
2023-03-26T02:23:03.814Z,3
2023-03-26T02:23:49.803Z,3
2023-03-26T02:24:35.797Z,3
2023-03-26T02:25:21.858Z,3
2023-03-26T02:26:07.819Z,3
2023-03-26T02:26:53.848Z,3
2023-03-26T02:27:39.859Z,3
2023-03-26T02:28:25.830Z,3
2023-03-26T02:29:11.837Z,3
2023-03-26T02:29:57.819Z,3
2023-03-26T02:30:43.984Z,3
2023-03-26T02:31:29.899Z,3
2023-03-26T02:32:15.968Z,3
2023-03-26T02:33:01.830Z,3
2023-03-26T02:33:47.866Z,3
2023-03-26T02:34:33.863Z,3
2023-03-26T02:35:19.906Z,3
2023-03-26T02:36:05.927Z,3
2023-03-26T02:36:51.947Z,3
2023-03-26T02:37:37.870Z,3
2023-03-26T02:38:23.881Z,3
2023-03-26T02:39:09.873Z,3
2023-03-26T02:39:55.876Z,3
2023-03-26T02:40:41.911Z,3
2023-03-26T02:41:27.906Z,3
2023-03-26T02:42:13.848Z,3
2023-03-26T02:42:59.908Z,3
2023-03-26T02:43:45.858Z,3
2023-03-26T02:44:31.904Z,3
2023-03-26T02:45:17.992Z,3
2023-03-26T02:46:03.918Z,3
2023-03-26T02:46:49.888Z,3
2023-03-26T02:47:35.940Z,3
2023-03-26T02:48:22.011Z,3
2023-03-26T02:49:07.922Z,3
2023-03-26T02:49:53.959Z,3
2023-03-26T02:50:39.924Z,3
2023-03-26T02:51:25.966Z,3
2023-03-26T02:52:11.898Z,3
2023-03-26T02:52:57.903Z,3
2023-03-26T02:53:43.935Z,3
2023-03-26T02:54:29.944Z,3
2023-03-26T02:55:16.066Z,3
2023-03-26T02:56:01.944Z,3
2023-03-26T02:56:47.999Z,3
2023-03-26T02:57:33.960Z,3
2023-03-26T02:58:19.989Z,3
2023-03-26T02:59:05.959Z,3
2023-03-26T02:59:51.967Z,3
2023-03-26T03:00:38.094Z,3
2023-03-26T03:01:24.011Z,3
2023-03-26T03:02:09.996Z,3
2023-03-26T03:02:56.076Z,3
2023-03-26T03:03:41.967Z,3
2023-03-26T03:04:28.029Z,3
2023-03-26T03:05:14.003Z,3
2023-03-26T03:06:00.007Z,3
2023-03-26T03:06:46.022Z,3
2023-03-26T03:07:32.002Z,3
2023-03-26T03:08:18.022Z,3
2023-03-26T03:09:04.001Z,3
2023-03-26T03:09:50.048Z,3
2023-03-26T03:10:36.029Z,3
2023-03-26T03:11:22.149Z,3
2023-03-26T03:12:07.997Z,3
2023-03-26T03:12:54.012Z,3
2023-03-26T03:13:40.024Z,3
2023-03-26T03:14:26.063Z,3
2023-03-26T03:15:12.133Z,3
2023-03-26T03:15:58.050Z,3
2023-03-26T03:16:44.101Z,3
2023-03-26T03:17:30.077Z,3
2023-03-26T03:18:16.180Z,3
2023-03-26T03:19:02.082Z,3
2023-03-26T03:19:48.050Z,3
2023-03-26T03:20:34.100Z,3
2023-03-26T03:21:20.063Z,3
2023-03-26T03:22:06.066Z,3
2023-03-26T03:22:52.095Z,3
2023-03-26T03:23:38.068Z,3
2023-03-26T03:24:24.105Z,3
2023-03-26T03:25:10.105Z,3
2023-03-26T03:25:56.384Z,3
2023-03-26T03:26:42.100Z,3
2023-03-26T03:27:28.148Z,3
2023-03-26T03:28:14.114Z,3
2023-03-26T03:29:00.151Z,3
2023-03-26T03:29:46.130Z,3
2023-03-26T03:30:32.228Z,3
2023-03-26T03:31:18.140Z,3
2023-03-26T03:32:04.157Z,3
2023-03-26T03:32:50.180Z,3
2023-03-26T03:33:36.121Z,3
2023-03-26T03:34:22.154Z,3
2023-03-26T03:35:08.130Z,3
2023-03-26T03:35:54.418Z,3
2023-03-26T03:36:40.158Z,3
2023-03-26T03:37:26.118Z,3
2023-03-26T03:38:12.148Z,3
2023-03-26T03:38:58.159Z,3
2023-03-26T03:39:44.158Z,3
2023-03-26T03:40:30.177Z,3
2023-03-26T03:41:16.238Z,3
2023-03-26T03:42:02.148Z,3
2023-03-26T03:42:48.146Z,3
2023-03-26T03:43:34.199Z,3
2023-03-26T03:44:20.199Z,3
2023-03-26T03:45:06.269Z,3
2023-03-26T03:45:52.282Z,3
2023-03-26T03:46:38.245Z,3
2023-03-26T03:47:24.304Z,3
2023-03-26T03:48:10.232Z,3
2023-03-26T03:48:56.173Z,3
2023-03-26T03:49:42.273Z,3
2023-03-26T03:50:28.206Z,3
2023-03-26T03:51:14.199Z,3
2023-03-26T03:52:00.214Z,3
2023-03-26T03:52:46.232Z,3
2023-03-26T03:53:32.213Z,3
2023-03-26T03:54:18.212Z,3
2023-03-26T03:55:04.315Z,3
2023-03-26T03:55:50.245Z,3
2023-03-26T03:56:36.320Z,3
2023-03-26T03:57:22.242Z,3
2023-03-26T03:58:08.259Z,3
2023-03-26T03:58:54.242Z,3
2023-03-26T03:59:47.339Z,3
2023-03-26T04:00:26.365Z,3
2023-03-26T04:01:12.257Z,3
2023-03-26T04:01:58.275Z,3
2023-03-26T04:02:44.325Z,3
2023-03-26T04:03:33.635Z,3
2023-03-26T04:04:16.415Z,3
2023-03-26T04:05:02.259Z,3
2023-03-26T04:05:48.291Z,3
2023-03-26T04:06:34.317Z,3
2023-03-26T04:07:20.295Z,3
2023-03-26T04:08:06.327Z,3
2023-03-26T04:08:52.311Z,3
2023-03-26T04:09:38.323Z,3
2023-03-26T04:10:24.337Z,3
2023-03-26T04:11:10.335Z,3
2023-03-26T04:11:56.322Z,3
2023-03-26T04:12:42.321Z,3
2023-03-26T04:13:28.299Z,3
2023-03-26T04:14:14.314Z,3
2023-03-26T04:15:00.395Z,3
2023-03-26T04:15:46.340Z,3
2023-03-26T04:16:32.372Z,3
2023-03-26T04:17:18.364Z,3
2023-03-26T04:18:04.389Z,3
2023-03-26T04:18:50.353Z,3
2023-03-26T04:19:36.346Z,3
2023-03-26T04:20:22.351Z,3
2023-03-26T04:21:08.353Z,3
2023-03-26T04:21:54.382Z,3
2023-03-26T04:22:40.384Z,3
2023-03-26T04:23:26.373Z,3
2023-03-26T04:24:12.355Z,3
2023-03-26T04:24:58.388Z,3
2023-03-26T04:25:44.371Z,3
2023-03-26T04:26:30.374Z,3
2023-03-26T04:27:16.542Z,3
2023-03-26T04:28:02.366Z,3
2023-03-26T04:28:48.418Z,3
2023-03-26T04:29:34.417Z,3
2023-03-26T04:30:20.511Z,3
2023-03-26T04:31:06.462Z,3
2023-03-26T04:31:52.472Z,3
2023-03-26T04:32:38.428Z,3
2023-03-26T04:33:24.407Z,3
2023-03-26T04:34:10.438Z,3
2023-03-26T04:34:56.439Z,3
2023-03-26T04:35:42.434Z,3
2023-03-26T04:36:28.517Z,3
2023-03-26T04:37:14.422Z,3
2023-03-26T04:38:00.441Z,3
2023-03-26T04:38:46.441Z,3
2023-03-26T04:39:32.456Z,3
2023-03-26T04:40:18.426Z,3
2023-03-26T04:41:04.681Z,3
2023-03-26T04:41:50.458Z,3
2023-03-26T04:42:36.480Z,3
2023-03-26T04:43:22.457Z,3
2023-03-26T04:44:08.464Z,3
2023-03-26T04:44:54.505Z,3
2023-03-26T04:45:40.724Z,3
2023-03-26T04:46:26.534Z,3
2023-03-26T04:47:12.468Z,3
2023-03-26T04:47:58.559Z,3
2023-03-26T04:48:44.511Z,3
2023-03-26T04:49:30.500Z,3
2023-03-26T04:50:16.613Z,3
2023-03-26T04:51:02.559Z,3
2023-03-26T04:51:48.497Z,3
2023-03-26T04:52:34.512Z,3
2023-03-26T04:53:20.535Z,3
2023-03-26T04:54:06.528Z,3
2023-03-26T04:54:52.586Z,3
2023-03-26T04:55:38.504Z,3
2023-03-26T04:56:24.529Z,3
2023-03-26T04:57:10.634Z,3
2023-03-26T04:57:56.546Z,3
2023-03-26T04:58:42.561Z,3
2023-03-26T04:59:28.554Z,3
2023-03-26T05:00:14.688Z,3
2023-03-26T05:01:00.612Z,3
2023-03-26T05:01:46.551Z,3
2023-03-26T05:02:32.673Z,3
2023-03-26T05:03:18.573Z,3
2023-03-26T05:04:04.615Z,3
2023-03-26T05:04:50.583Z,3
2023-03-26T05:05:36.581Z,3
2023-03-26T05:06:22.645Z,3
2023-03-26T05:07:08.571Z,3
2023-03-26T05:07:54.604Z,3
2023-03-26T05:08:40.599Z,3
2023-03-26T05:09:26.623Z,3
2023-03-26T05:10:12.632Z,3
2023-03-26T05:10:58.633Z,3
2023-03-26T05:11:44.621Z,3
2023-03-26T05:12:30.653Z,3
2023-03-26T05:13:16.738Z,3
2023-03-26T05:14:02.641Z,3
2023-03-26T05:14:48.641Z,3
2023-03-26T05:15:34.684Z,3
2023-03-26T05:16:20.743Z,3
2023-03-26T05:17:06.661Z,3
2023-03-26T05:17:52.659Z,3
2023-03-26T05:18:38.694Z,3
2023-03-26T05:19:24.642Z,3
2023-03-26T05:20:10.628Z,3
2023-03-26T05:20:57.006Z,3
2023-03-26T05:21:42.674Z,3
2023-03-26T05:22:28.679Z,3
2023-03-26T05:23:14.638Z,3
2023-03-26T05:24:00.689Z,3
2023-03-26T05:24:46.739Z,3
2023-03-26T05:25:32.702Z,3
2023-03-26T05:26:18.711Z,3
2023-03-26T05:27:04.711Z,3
2023-03-26T05:27:50.724Z,3
2023-03-26T05:28:36.701Z,3
2023-03-26T05:29:22.736Z,3
2023-03-26T05:30:08.779Z,3
2023-03-26T05:30:54.957Z,3
2023-03-26T05:31:40.732Z,3
2023-03-26T05:32:26.729Z,3
2023-03-26T05:33:12.756Z,3
2023-03-26T05:33:58.766Z,3
2023-03-26T05:34:44.763Z,3
2023-03-26T05:35:30.714Z,3
2023-03-26T05:36:16.849Z,3
2023-03-26T05:37:02.744Z,3
2023-03-26T05:37:48.756Z,3
2023-03-26T05:38:34.767Z,3
2023-03-26T05:39:20.779Z,3
2023-03-26T05:40:06.756Z,3
2023-03-26T05:40:52.849Z,3
2023-03-26T05:41:38.759Z,3
2023-03-26T05:42:24.758Z,3
2023-03-26T05:43:10.776Z,3
2023-03-26T05:43:56.814Z,3
2023-03-26T05:44:42.803Z,3
2023-03-26T05:45:28.852Z,3
2023-03-26T05:46:14.875Z,3
2023-03-26T05:47:00.786Z,3
2023-03-26T05:47:46.853Z,3
2023-03-26T05:48:32.810Z,3
2023-03-26T05:49:18.824Z,3
2023-03-26T05:50:04.852Z,3
2023-03-26T05:50:50.824Z,3
2023-03-26T05:51:36.813Z,3
2023-03-26T05:52:22.829Z,3
2023-03-26T05:53:08.822Z,3
2023-03-26T05:53:54.842Z,3
2023-03-26T05:54:40.846Z,3
2023-03-26T05:55:26.836Z,3
2023-03-26T05:56:12.835Z,3
2023-03-26T05:56:58.907Z,3
2023-03-26T05:57:44.852Z,3
2023-03-26T05:58:30.838Z,3
2023-03-26T05:59:16.972Z,3
2023-03-26T06:00:02.987Z,3
2023-03-26T06:00:48.900Z,3
2023-03-26T06:01:34.859Z,3
2023-03-26T06:02:20.944Z,3
2023-03-26T06:03:06.973Z,3
2023-03-26T06:03:53.111Z,3
2023-03-26T06:04:38.939Z,3
2023-03-26T06:05:24.895Z,3
2023-03-26T06:06:10.876Z,3
2023-03-26T06:06:56.878Z,3
2023-03-26T06:07:42.863Z,3
2023-03-26T06:08:28.902Z,3
2023-03-26T06:09:14.904Z,3
2023-03-26T06:10:00.874Z,3
2023-03-26T06:10:46.923Z,3
2023-03-26T06:11:32.956Z,3
2023-03-26T06:12:18.917Z,3
2023-03-26T06:13:04.927Z,3
2023-03-26T06:13:50.904Z,3
2023-03-26T06:14:36.904Z,3
2023-03-26T06:15:23.003Z,3
2023-03-26T06:16:08.979Z,3
2023-03-26T06:16:54.958Z,3
2023-03-26T06:17:40.966Z,3
2023-03-26T06:18:26.996Z,3
2023-03-26T06:19:12.955Z,3
2023-03-26T06:19:58.942Z,3
2023-03-26T06:20:44.956Z,3
2023-03-26T06:21:30.952Z,3
2023-03-26T06:22:17.106Z,3
2023-03-26T06:23:02.984Z,3
2023-03-26T06:23:48.984Z,3
2023-03-26T06:24:34.976Z,3
2023-03-26T06:25:21.007Z,3
2023-03-26T06:26:06.995Z,3
2023-03-26T06:26:52.971Z,3
2023-03-26T06:27:39.008Z,3
2023-03-26T06:28:24.979Z,3
2023-03-26T06:29:10.996Z,3
2023-03-26T06:29:57.011Z,3
2023-03-26T06:30:43.123Z,3
2023-03-26T06:31:29.140Z,3
2023-03-26T06:32:19.576Z,3
2023-03-26T06:33:01.016Z,3
2023-03-26T06:33:47.087Z,3
2023-03-26T06:34:33.037Z,3
2023-03-26T06:35:19.041Z,3
2023-03-26T06:36:05.080Z,3
2023-03-26T06:36:51.024Z,3
2023-03-26T06:37:37.042Z,3
2023-03-26T06:38:23.036Z,3
2023-03-26T06:39:09.034Z,3
2023-03-26T06:39:55.049Z,3
2023-03-26T06:40:41.025Z,3
2023-03-26T06:41:27.057Z,3
2023-03-26T06:42:13.063Z,3
2023-03-26T06:43:07.907Z,3
2023-03-26T06:43:45.079Z,3
2023-03-26T06:44:31.099Z,3
2023-03-26T06:45:17.260Z,3
2023-03-26T06:46:03.140Z,3
2023-03-26T06:46:49.092Z,3
2023-03-26T06:47:35.157Z,3
2023-03-26T06:48:21.099Z,3
2023-03-26T06:49:07.103Z,3
2023-03-26T06:49:53.083Z,3
2023-03-26T06:50:39.137Z,3
2023-03-26T06:51:25.106Z,3
2023-03-26T06:52:11.096Z,3
2023-03-26T06:52:57.173Z,3
2023-03-26T06:53:43.137Z,3
2023-03-26T06:54:29.094Z,3
2023-03-26T06:55:15.102Z,3
2023-03-26T06:56:01.135Z,3
2023-03-26T06:56:47.164Z,3
2023-03-26T06:57:33.140Z,3
2023-03-26T06:58:19.240Z,3
2023-03-26T06:59:05.141Z,3
2023-03-26T06:59:51.227Z,3
2023-03-26T07:00:37.242Z,3
2023-03-26T07:01:23.227Z,3
2023-03-26T07:02:09.194Z,3
2023-03-26T07:02:55.183Z,3
2023-03-26T07:03:41.222Z,3
2023-03-26T07:04:27.266Z,3
2023-03-26T07:05:13.191Z,3
2023-03-26T07:05:59.181Z,3
2023-03-26T07:06:45.199Z,3
2023-03-26T07:07:31.204Z,3
2023-03-26T07:08:17.304Z,3
2023-03-26T07:09:03.191Z,3
2023-03-26T07:09:49.233Z,3
2023-03-26T07:10:35.219Z,3
2023-03-26T07:11:21.219Z,3
2023-03-26T07:12:07.219Z,3
2023-03-26T07:12:53.223Z,3
2023-03-26T07:13:39.203Z,3
2023-03-26T07:14:25.231Z,3
2023-03-26T07:15:14.113Z,3
2023-03-26T07:15:57.251Z,3
2023-03-26T07:16:43.284Z,3
2023-03-26T07:17:29.243Z,3
2023-03-26T07:18:15.221Z,3
2023-03-26T07:19:01.262Z,3
2023-03-26T07:19:47.268Z,3
2023-03-26T07:20:33.274Z,3
2023-03-26T07:21:19.251Z,3
2023-03-26T07:22:05.242Z,3
2023-03-26T07:22:51.267Z,3
2023-03-26T07:23:37.277Z,3
2023-03-26T07:24:23.286Z,3
2023-03-26T07:25:09.305Z,3
2023-03-26T07:25:55.248Z,3
2023-03-26T07:26:41.288Z,3
2023-03-26T07:27:27.312Z,3
2023-03-26T07:28:13.292Z,3
2023-03-26T07:29:04.476Z,3
2023-03-26T07:29:45.281Z,3
2023-03-26T07:30:31.481Z,3
2023-03-26T07:31:17.470Z,3
2023-03-26T07:32:03.464Z,3
2023-03-26T07:32:49.337Z,3
2023-03-26T07:33:35.320Z,3
2023-03-26T07:34:21.319Z,3
2023-03-26T07:35:07.339Z,3
2023-03-26T07:35:53.409Z,3
2023-03-26T07:36:39.348Z,3
2023-03-26T07:37:25.353Z,3
2023-03-26T07:38:11.321Z,3
2023-03-26T07:38:57.340Z,3
2023-03-26T07:39:43.388Z,3
2023-03-26T07:40:29.332Z,3
2023-03-26T07:41:15.361Z,3
2023-03-26T07:42:01.368Z,3
2023-03-26T07:42:47.416Z,3
2023-03-26T07:43:33.363Z,3
2023-03-26T07:44:19.421Z,3
2023-03-26T07:45:05.461Z,3
2023-03-26T07:45:51.420Z,3
2023-03-26T07:46:37.371Z,3
2023-03-26T07:47:23.388Z,3
2023-03-26T07:48:09.370Z,3
2023-03-26T07:48:55.400Z,3
2023-03-26T07:49:41.394Z,3
2023-03-26T07:50:27.442Z,3
2023-03-26T07:51:13.405Z,3
2023-03-26T07:51:59.411Z,3
2023-03-26T07:52:45.411Z,3
2023-03-26T07:53:31.455Z,3
2023-03-26T07:54:17.522Z,3
2023-03-26T07:55:03.438Z,3
2023-03-26T07:55:49.394Z,3
2023-03-26T07:56:35.622Z,3
2023-03-26T07:57:21.482Z,3
2023-03-26T07:58:07.446Z,3
2023-03-26T07:58:53.418Z,3
2023-03-26T07:59:39.509Z,3
2023-03-26T08:00:25.525Z,3
2023-03-26T08:01:11.484Z,3
2023-03-26T08:01:57.482Z,3
2023-03-26T08:02:43.509Z,3
2023-03-26T08:03:29.699Z,3
2023-03-26T08:04:24.103Z,3
2023-03-26T08:05:01.559Z,3
2023-03-26T08:05:47.484Z,3
2023-03-26T08:06:33.461Z,3
2023-03-26T08:07:19.541Z,3
2023-03-26T08:08:05.514Z,3
2023-03-26T08:08:51.501Z,3
2023-03-26T08:09:37.502Z,3
2023-03-26T08:10:23.523Z,3
2023-03-26T08:11:09.502Z,3
2023-03-26T08:11:55.474Z,3
2023-03-26T08:12:41.521Z,3
2023-03-26T08:13:27.499Z,3
2023-03-26T08:14:13.501Z,3
2023-03-26T08:14:59.521Z,3
2023-03-26T08:15:45.647Z,3
2023-03-26T08:16:31.565Z,3
2023-03-26T08:17:17.648Z,3
2023-03-26T08:18:03.530Z,3
2023-03-26T08:18:49.556Z,3
2023-03-26T08:19:35.574Z,3
2023-03-26T08:20:21.544Z,3
2023-03-26T08:21:07.561Z,3
2023-03-26T08:21:53.536Z,3
2023-03-26T08:22:39.557Z,3
2023-03-26T08:23:25.580Z,3
2023-03-26T08:24:11.556Z,3
2023-03-26T08:24:57.611Z,3
2023-03-26T08:25:43.566Z,3
2023-03-26T08:26:29.631Z,3
2023-03-26T08:27:15.566Z,3
2023-03-26T08:28:01.565Z,3
2023-03-26T08:28:47.576Z,3
2023-03-26T08:29:33.606Z,3
2023-03-26T08:30:19.676Z,3
2023-03-26T08:31:05.621Z,3
2023-03-26T08:31:51.579Z,3
2023-03-26T08:32:37.588Z,3
2023-03-26T08:33:23.617Z,3
2023-03-26T08:34:09.599Z,3
2023-03-26T08:34:55.629Z,3
2023-03-26T08:35:41.733Z,3
2023-03-26T08:36:27.584Z,3
2023-03-26T08:37:13.639Z,3
2023-03-26T08:37:59.643Z,3
2023-03-26T08:38:46.877Z,3
2023-03-26T08:39:31.656Z,3
2023-03-26T08:40:17.831Z,3
2023-03-26T08:41:03.619Z,3
2023-03-26T08:41:49.653Z,3
2023-03-26T08:42:35.642Z,3
2023-03-26T08:43:21.625Z,3
2023-03-26T08:44:07.723Z,3
2023-03-26T08:44:53.623Z,3
2023-03-26T08:45:39.750Z,3
2023-03-26T08:46:25.700Z,3
2023-03-26T08:47:11.657Z,3
2023-03-26T08:47:57.729Z,3
2023-03-26T08:48:43.650Z,3
2023-03-26T08:49:29.889Z,3
2023-03-26T08:50:15.696Z,3
2023-03-26T08:51:01.745Z,3
2023-03-26T08:51:47.715Z,3
2023-03-26T08:52:33.714Z,3
2023-03-26T08:53:19.693Z,3
2023-03-26T08:54:05.715Z,3
2023-03-26T08:54:51.670Z,3
2023-03-26T08:55:37.685Z,3
2023-03-26T08:56:23.690Z,3
2023-03-26T08:57:09.747Z,3
2023-03-26T08:57:55.727Z,3
2023-03-26T08:58:41.706Z,3
2023-03-26T08:59:27.720Z,3
2023-03-26T09:00:13.775Z,3
2023-03-26T09:00:59.724Z,3
2023-03-26T09:01:45.765Z,3
2023-03-26T09:02:31.757Z,3
2023-03-26T09:03:17.823Z,3
2023-03-26T09:04:03.793Z,3
2023-03-26T09:04:49.702Z,3
2023-03-26T09:05:35.747Z,3
2023-03-26T09:06:22.634Z,3
2023-03-26T09:07:07.791Z,3
2023-03-26T09:07:53.751Z,3
2023-03-26T09:08:54.229Z,3
2023-03-26T09:09:25.754Z,3
2023-03-26T09:10:11.815Z,3
2023-03-26T09:10:57.804Z,3
2023-03-26T09:11:43.763Z,3
2023-03-26T09:12:29.756Z,3
2023-03-26T09:13:15.782Z,3
2023-03-26T09:14:01.765Z,3
2023-03-26T09:14:47.798Z,3
2023-03-26T09:15:33.944Z,3
2023-03-26T09:16:19.815Z,3
2023-03-26T09:17:05.763Z,3
2023-03-26T09:17:51.845Z,3
2023-03-26T09:18:37.804Z,3
2023-03-26T09:19:23.823Z,3
2023-03-26T09:20:09.841Z,3
2023-03-26T09:20:56.051Z,3
2023-03-26T09:21:41.806Z,3
2023-03-26T09:22:27.827Z,3
2023-03-26T09:23:15.054Z,3
2023-03-26T09:23:59.802Z,3
2023-03-26T09:24:45.848Z,3
2023-03-26T09:25:31.821Z,3
2023-03-26T09:26:17.927Z,3
2023-03-26T09:27:03.818Z,3
2023-03-26T09:27:49.833Z,3
2023-03-26T09:28:35.841Z,3
2023-03-26T09:29:21.854Z,3
2023-03-26T09:30:07.949Z,3
2023-03-26T09:30:54.042Z,3
2023-03-26T09:31:39.878Z,3
2023-03-26T09:32:25.890Z,3
2023-03-26T09:33:11.862Z,3
2023-03-26T09:33:57.875Z,3
2023-03-26T09:34:43.868Z,3
2023-03-26T09:35:29.956Z,3
2023-03-26T09:36:15.890Z,3
2023-03-26T09:37:01.857Z,3
2023-03-26T09:37:56.868Z,3
2023-03-26T09:38:33.897Z,3
2023-03-26T09:39:19.885Z,3
2023-03-26T09:40:05.934Z,3
2023-03-26T09:40:53.053Z,3
2023-03-26T09:41:37.897Z,3
2023-03-26T09:42:23.966Z,3
2023-03-26T09:43:09.907Z,3
2023-03-26T09:43:55.905Z,3
2023-03-26T09:44:41.918Z,3
2023-03-26T09:45:28.081Z,3
2023-03-26T09:46:13.981Z,3
2023-03-26T09:46:59.925Z,3
2023-03-26T09:47:45.979Z,3
2023-03-26T09:48:31.935Z,3
2023-03-26T09:49:18.031Z,3
2023-03-26T09:50:03.944Z,3
2023-03-26T09:50:49.953Z,3
2023-03-26T09:51:35.994Z,3
2023-03-26T09:52:21.948Z,3
2023-03-26T09:53:07.955Z,3
2023-03-26T09:53:53.994Z,3
2023-03-26T09:54:39.942Z,3
2023-03-26T09:55:25.972Z,3
2023-03-26T09:56:11.969Z,3
2023-03-26T09:56:58.170Z,3
2023-03-26T09:57:44.004Z,3
2023-03-26T09:58:29.999Z,3
2023-03-26T09:59:15.959Z,3
2023-03-26T10:00:02.056Z,3
2023-03-26T10:00:48.040Z,3
2023-03-26T10:01:33.991Z,3
2023-03-26T10:02:20.048Z,3
2023-03-26T10:03:06.018Z,3
2023-03-26T10:03:52.063Z,3
2023-03-26T10:04:38.123Z,3
2023-03-26T10:05:24.012Z,3
2023-03-26T10:06:10.042Z,3
2023-03-26T10:06:56.022Z,3
2023-03-26T10:07:42.021Z,3
2023-03-26T10:08:28.846Z,3
2023-03-26T10:09:14.051Z,3
2023-03-26T10:10:00.099Z,3
2023-03-26T10:10:46.068Z,3
2023-03-26T10:11:32.039Z,3
2023-03-26T10:12:18.128Z,3
2023-03-26T10:13:13.959Z,3
2023-03-26T10:13:50.062Z,3
2023-03-26T10:14:36.093Z,3
2023-03-26T10:15:23.430Z,3
2023-03-26T10:16:08.105Z,3
2023-03-26T10:16:54.107Z,3
2023-03-26T10:17:40.162Z,3
2023-03-26T10:18:27.698Z,3
2023-03-26T10:19:12.090Z,3
2023-03-26T10:19:58.135Z,3
2023-03-26T10:20:44.118Z,3
2023-03-26T10:21:30.173Z,3
2023-03-26T10:22:16.156Z,3
2023-03-26T10:23:02.105Z,3
2023-03-26T10:23:48.151Z,3
2023-03-26T10:24:34.144Z,3
2023-03-26T10:25:20.184Z,3
2023-03-26T10:26:06.228Z,3
2023-03-26T10:27:08.355Z,3
2023-03-26T10:27:38.247Z,3
2023-03-26T10:28:24.111Z,3
2023-03-26T10:29:10.152Z,3
2023-03-26T10:29:56.154Z,3
2023-03-26T10:30:42.254Z,3
2023-03-26T10:31:28.345Z,3
2023-03-26T10:32:14.164Z,3
2023-03-26T10:33:00.241Z,3
2023-03-26T10:33:46.187Z,3
2023-03-26T10:34:32.166Z,3
2023-03-26T10:35:18.359Z,3
2023-03-26T10:36:04.231Z,3
2023-03-26T10:36:50.184Z,3
2023-03-26T10:37:36.219Z,3
2023-03-26T10:38:22.216Z,3
2023-03-26T10:39:09.102Z,0
2023-03-26T10:39:55.015Z,0
2023-03-26T10:40:41.333Z,0
2023-03-26T10:41:26.979Z,0
2023-03-26T10:42:13.066Z,0
2023-03-26T10:42:59.100Z,0
2023-03-26T10:43:49.724Z,0
2023-03-26T10:44:31.178Z,0
2023-03-26T10:45:17.115Z,0
2023-03-26T10:46:03.050Z,0
2023-03-26T10:46:49.137Z,0
2023-03-26T10:47:35.425Z,1
2023-03-26T10:48:21.234Z,1
2023-03-26T10:49:07.010Z,1
2023-03-26T10:49:52.989Z,0
2023-03-26T10:50:39.130Z,0
2023-03-26T10:51:25.168Z,0
2023-03-26T10:52:12.003Z,0
2023-03-26T10:52:57.004Z,0
2023-03-26T10:53:43.141Z,0
2023-03-26T10:54:29.062Z,0
2023-03-26T10:55:15.157Z,0
2023-03-26T10:56:01.125Z,0
2023-03-26T10:56:47.127Z,0
2023-03-26T10:57:33.038Z,0
2023-03-26T10:58:19.196Z,0
2023-03-26T10:59:05.137Z,0
2023-03-26T10:59:51.198Z,0
2023-03-26T11:00:37.174Z,0
2023-03-26T11:01:23.113Z,0
2023-03-26T11:02:09.201Z,0
2023-03-26T11:02:55.308Z,0
2023-03-26T11:03:44.029Z,2
2023-03-26T11:04:27.306Z,13
2023-03-26T11:05:13.321Z,4
2023-03-26T11:05:59.432Z,5
2023-03-26T11:06:45.306Z,1
2023-03-26T11:07:31.265Z,0
2023-03-26T11:08:17.103Z,0
2023-03-26T11:09:03.072Z,0
2023-03-26T11:09:49.205Z,0
2023-03-26T11:10:35.339Z,1
2023-03-26T11:11:21.537Z,8
2023-03-26T11:12:26.494Z,2
2023-03-26T11:12:53.292Z,1
2023-03-26T11:13:39.279Z,0
2023-03-26T11:14:34.402Z,1
2023-03-26T11:15:12.370Z,1
2023-03-26T11:15:57.407Z,1
2023-03-26T11:16:43.565Z,2
2023-03-26T11:17:40.663Z,5
2023-03-26T11:18:15.387Z,13
2023-03-26T11:19:01.948Z,13
2023-03-26T11:19:47.501Z,10
2023-03-26T11:20:33.415Z,2